Time;durP1;ratioP1;P1;durP2;ratioP2;P2;SDS_P1;SDS_P2;PMS_P1;PMS_P2;Temp;Humidity;BMP_temperature;BMP_pressure;BME280_temperature;BME280_humidity;BME280_pressure;Samples;Min_cycle;Max_cycle;Signal;HPM_P1;HPM_P2
2024/01/22 00:00:47;;;;;;;15.88;9.13;;;;;;;-1.93;100.00;101905.34;10254801;29;20112;-69
2024/01/22 00:05:47;;;;;;;15.95;9.55;;;;;;;-1.87;100.00;101911.19;10255218;29;20043;-68
2024/01/22 00:10:48;;;;;;;18.50;10.20;;;;;;;-1.83;100.00;101925.81;10254577;29;20504;-68
2024/01/22 00:15:49;;;;;;;15.45;9.25;;;;;;;-1.68;100.00;101928.81;10254752;28;20115;-68
2024/01/22 00:20:50;;;;;;;17.80;9.88;;;;;;;-1.68;100.00;101931.41;10253866;29;20055;-68
2024/01/22 00:25:50;;;;;;;16.52;9.98;;;;;;;-1.96;100.00;101895.00;10254331;29;20039;-68
2024/01/22 00:30:51;;;;;;;20.48;10.13;;;;;;;-2.01;100.00;101889.09;10253746;29;20038;-68
2024/01/22 00:35:52;;;;;;;17.35;10.15;;;;;;;-2.32;100.00;101896.13;10254040;28;20039;-68
2024/01/22 00:40:53;;;;;;;22.40;11.35;;;;;;;-2.09;100.00;101939.66;10253626;28;20126;-68
2024/01/22 00:45:54;;;;;;;25.10;13.00;;;;;;;-2.11;100.00;101927.59;10254007;28;20467;-68
2024/01/22 00:50:55;;;;;;;20.88;11.48;;;;;;;-2.08;100.00;101940.53;10253005;28;20051;-68
2024/01/22 00:55:55;;;;;;;23.42;13.43;;;;;;;-2.05;100.00;101945.63;10252960;28;20050;-68
2024/01/22 01:00:56;;;;;;;23.75;13.98;;;;;;;-2.35;100.00;101890.16;10253042;28;20095;-68
2024/01/22 01:05:57;;;;;;;23.02;13.65;;;;;;;-2.02;100.00;101945.53;10253012;28;20050;-68
2024/01/22 01:10:58;;;;;;;28.77;15.48;;;;;;;-2.44;100.00;101886.09;10252387;28;20118;-68
2024/01/22 01:15:58;;;;;;;25.85;14.18;;;;;;;-2.10;100.00;101943.16;10252369;28;20077;-68
2024/01/22 01:20:59;;;;;;;23.67;13.57;;;;;;;-2.17;100.00;101959.88;10251584;28;20070;-68
2024/01/22 01:26:00;;;;;;;26.33;14.93;;;;;;;-2.22;100.00;101963.50;10252271;28;20047;-68
2024/01/22 01:31:01;;;;;;;28.17;14.90;;;;;;;-2.35;100.00;101953.47;10251105;29;20050;-68
2024/01/22 01:36:02;;;;;;;26.10;15.30;;;;;;;-2.34;100.00;101976.00;10247934;28;20046;-69
2024/01/22 01:41:04;;;;;;;25.55;14.40;;;;;;;-2.39;100.00;101984.88;10250558;28;20047;-68
2024/01/22 01:46:05;;;;;;;29.05;15.68;;;;;;;-2.65;100.00;101943.97;10251120;28;20420;-70
2024/01/22 01:51:07;;;;;;;25.45;13.98;;;;;;;-2.32;100.00;101984.63;10251295;29;20043;-70
2024/01/22 01:56:08;;;;;;;25.88;15.00;;;;;;;-2.24;100.00;101978.31;10262063;28;20459;-70
2024/01/22 02:01:09;;;;;;;24.75;14.27;;;;;;;-2.00;100.00;102000.19;10264271;28;20043;-70
2024/01/22 02:06:10;;;;;;;27.20;14.85;;;;;;;-2.31;100.00;101954.22;10264269;28;20102;-70
2024/01/22 02:11:11;;;;;;;27.85;15.05;;;;;;;-2.11;100.00;102003.97;10265261;28;20067;-70
2024/01/22 02:16:12;;;;;;;24.52;14.23;;;;;;;-2.13;100.00;102010.94;10263761;28;20043;-69
2024/01/22 02:21:14;;;;;;;22.13;12.63;;;;;;;-2.34;100.00;102028.03;10260808;28;20038;-70
2024/01/22 02:26:14;;;;;;;21.25;11.75;;;;;;;-2.57;100.00;102033.06;10263194;28;20397;-70
2024/01/22 02:31:16;;;;;;;17.27;10.88;;;;;;;-2.62;100.00;102034.94;10256394;28;20039;-70
2024/01/22 02:36:17;;;;;;;21.40;10.60;;;;;;;-2.81;100.00;102045.84;10259921;28;20074;-70
2024/01/22 02:41:18;;;;;;;16.58;9.45;;;;;;;-2.76;100.00;102054.34;10263834;28;20067;-70
2024/01/22 02:46:19;;;;;;;13.93;8.00;;;;;;;-2.77;100.00;102065.66;10264292;28;20051;-70
2024/01/22 02:51:19;;;;;;;17.70;8.75;;;;;;;-2.93;100.00;102068.69;10264659;28;20550;-70
2024/01/22 02:56:21;;;;;;;16.92;8.07;;;;;;;-3.00;100.00;102078.41;10263651;28;20051;-70
2024/01/22 03:01:21;;;;;;;16.08;7.72;;;;;;;-2.97;100.00;102082.69;10263893;28;20197;-70
2024/01/22 03:06:24;;;;;;;13.07;7.68;;;;;;;-2.97;100.00;102088.72;10258701;28;20059;-70
2024/01/22 03:11:24;;;;;;;13.98;7.78;;;;;;;-2.90;100.00;102103.31;10254793;28;20047;-70
2024/01/22 03:16:25;;;;;;;16.50;8.07;;;;;;;-2.82;100.00;102116.94;10255249;28;20127;-70
2024/01/22 03:21:26;;;;;;;139.10;50.00;;;;;;;-3.09;100.00;102073.44;10256459;28;20046;-70
2024/01/22 03:26:27;;;;;;;28.90;15.65;;;;;;;-2.65;100.00;102132.13;10255743;29;20043;-70
2024/01/22 03:31:29;;;;;;;20.40;12.07;;;;;;;-2.60;100.00;102132.88;10256914;28;20043;-70
2024/01/22 03:36:31;;;;;;;17.58;11.23;;;;;;;-2.92;100.00;102073.88;10256217;28;20106;-70
2024/01/22 03:41:33;;;;;;;13.07;8.70;;;;;;;-2.87;100.00;102084.13;10255781;28;20047;-70
2024/01/22 03:46:34;;;;;;;17.45;9.05;;;;;;;-2.61;100.00;102145.91;10255796;28;20063;-70
2024/01/22 03:51:34;;;;;;;17.00;10.07;;;;;;;-2.65;100.00;102149.50;10255739;28;20099;-70
2024/01/22 03:56:35;;;;;;;18.08;10.00;;;;;;;-2.77;100.00;102148.91;10253844;28;20047;-70
2024/01/22 04:01:36;;;;;;;18.52;10.45;;;;;;;-2.85;100.00;102156.03;10253626;28;20035;-71
2024/01/22 04:06:37;;;;;;;14.82;8.60;;;;;;;-3.01;100.00;102142.56;10255139;28;20055;-71
2024/01/22 04:11:37;;;;;;;16.05;9.50;;;;;;;-3.07;100.00;102165.25;10254135;29;20047;-71
2024/01/22 04:16:38;;;;;;;20.58;10.95;;;;;;;-3.11;100.00;102174.88;10254598;28;20051;-71
2024/01/22 04:21:45;;;;;;;16.73;9.88;;;;;;;-3.38;100.00;102136.50;10253998;28;20573;-71
2024/01/22 04:26:46;;;;;;;17.38;9.43;;;;;;;-3.12;100.00;102187.88;10254171;29;20051;-69
2024/01/22 04:31:47;;;;;;;16.95;9.75;;;;;;;-3.13;100.00;102186.19;10252872;29;20039;-69
2024/01/22 04:36:47;;;;;;;16.90;9.88;;;;;;;-3.14;100.00;102185.34;10252142;28;20047;-69
2024/01/22 04:41:48;;;;;;;16.48;9.40;;;;;;;-3.27;100.00;102197.75;10252418;29;20069;-69
2024/01/22 04:46:49;;;;;;;18.02;10.18;;;;;;;-3.44;100.00;102194.66;10253145;29;20480;-69
2024/01/22 04:51:50;;;;;;;18.35;10.35;;;;;;;-3.30;100.00;102210.81;10252693;28;20515;-69
2024/01/22 04:56:51;;;;;;;14.27;8.82;;;;;;;-3.26;100.00;102217.66;10253033;28;20050;-69
2024/01/22 05:01:52;;;;;;;18.88;9.45;;;;;;;-3.14;100.00;102231.25;10252688;29;20185;-69
2024/01/22 05:06:52;;;;;;;23.55;13.00;;;;;;;-3.01;100.00;102240.50;10252582;28;20059;-69
2024/01/22 05:11:53;;;;;;;18.80;10.20;;;;;;;-2.86;100.00;102239.31;10252801;28;20463;-69
2024/01/22 05:16:55;;;;;;;16.92;9.30;;;;;;;-2.80;100.00;102237.41;10252614;28;20043;-69
2024/01/22 05:21:56;;;;;;;16.60;10.02;;;;;;;-2.74;100.00;102241.63;10252043;28;20047;-69
2024/01/22 05:26:56;;;;;;;17.23;10.00;;;;;;;-3.16;100.00;102191.47;10251666;28;20047;-69
2024/01/22 05:31:57;;;;;;;20.83;10.73;;;;;;;-3.18;100.00;102201.88;10251735;28;20550;-69
2024/01/22 05:36:58;;;;;;;17.40;9.52;;;;;;;-2.96;100.00;102248.19;10252733;28;20098;-69
2024/01/22 05:41:59;;;;;;;15.57;9.32;;;;;;;-2.94;100.00;102243.81;10251395;29;20411;-69
2024/01/22 05:47:01;;;;;;;16.48;8.65;;;;;;;-2.73;100.00;102264.13;10252500;29;20146;-69
2024/01/22 05:52:01;;;;;;;18.98;8.73;;;;;;;-2.81;100.00;102274.72;10252472;28;20098;-69
2024/01/22 05:57:02;;;;;;;16.08;8.65;;;;;;;-2.72;100.00;102280.59;10252044;29;20090;-69
2024/01/22 06:02:03;;;;;;;13.60;7.80;;;;;;;-2.80;100.00;102286.84;10251662;29;20106;-69
2024/01/22 06:07:04;;;;;;;16.40;9.20;;;;;;;-3.16;100.00;102249.50;10251634;29;20039;-69
2024/01/22 06:12:05;;;;;;;12.73;7.97;;;;;;;-2.72;100.00;102304.88;10251508;29;20459;-69
2024/01/22 06:17:05;;;;;;;13.65;7.82;;;;;;;-2.94;100.00;102255.06;10250872;28;20051;-69
2024/01/22 06:22:06;;;;;;;13.27;7.28;;;;;;;-2.61;100.00;102310.66;10250821;29;20042;-69
2024/01/22 06:27:07;;;;;;;13.23;7.65;;;;;;;-2.84;100.00;102286.91;10251203;29;20079;-69
2024/01/22 06:32:08;;;;;;;16.20;8.15;;;;;;;-2.50;100.00;102323.44;10251195;29;20035;-69
2024/01/22 06:37:09;;;;;;;14.23;8.18;;;;;;;-2.41;100.00;102319.78;10250774;29;20488;-69
2024/01/22 06:42:10;;;;;;;12.70;7.50;;;;;;;-2.55;100.00;102330.50;10256836;28;20046;-69
2024/01/22 06:47:10;;;;;;;18.40;8.05;;;;;;;-2.39;100.00;102334.47;10257773;28;20043;-69
2024/01/22 06:52:11;;;;;;;12.23;7.30;;;;;;;-2.15;100.00;102332.19;10258674;28;20051;-69
2024/01/22 06:57:12;;;;;;;12.35;7.07;;;;;;;-2.19;100.00;102286.25;10257841;29;20488;-69
2024/01/22 07:02:14;;;;;;;12.60;6.25;;;;;;;-1.75;99.82;102333.75;10257465;29;20035;-69
2024/01/22 07:07:14;;;;;;;8.60;5.10;;;;;;;-1.93;97.90;102337.69;10257532;29;20467;-69
2024/01/22 07:12:15;;;;;;;13.35;6.13;;;;;;;-2.18;98.98;102320.09;10257458;29;20047;-69
2024/01/22 07:17:19;;;;;;;11.75;6.70;;;;;;;-2.38;99.74;102317.09;10257282;29;20054;-69
2024/01/22 07:22:19;;;;;;;11.90;6.27;;;;;;;-2.14;98.66;102337.34;10256708;28;20047;-69
2024/01/22 07:27:20;;;;;;;12.15;6.28;;;;;;;-2.48;99.33;102287.84;10256773;29;20487;-69
2024/01/22 07:32:21;;;;;;;17.77;6.72;;;;;;;-1.94;99.93;102297.78;10256666;29;20039;-69
2024/01/22 07:37:22;;;;;;;14.32;6.25;;;;;;;-1.69;98.18;102346.63;10255844;29;20047;-69
2024/01/22 07:42:22;;;;;;;13.30;6.90;;;;;;;-2.21;97.86;102262.03;10255751;29;20133;-69
2024/01/22 07:47:23;;;;;;;11.80;6.70;;;;;;;-1.99;96.61;102294.44;10257412;29;20061;-69
2024/01/22 07:52:24;;;;;;;9.95;5.63;;;;;;;-2.00;95.54;102317.91;10254618;28;20508;-69
2024/01/22 07:57:24;;;;;;;8.80;5.20;;;;;;;-1.63;98.09;102343.84;10255571;29;20050;-69
2024/01/22 08:02:25;;;;;;;11.75;7.38;;;;;;;-1.77;96.19;102351.19;10255500;29;20487;-69
2024/01/22 08:07:26;;;;;;;9.20;4.70;;;;;;;-2.04;94.70;102306.69;10255724;29;20551;-69
2024/01/22 08:12:27;;;;;;;8.43;5.50;;;;;;;-2.17;96.37;102284.47;10255089;29;20067;-69
2024/01/22 08:17:27;;;;;;;9.02;4.97;;;;;;;-1.47;94.15;102346.91;10254317;29;20427;-69
2024/01/22 08:22:28;;;;;;;8.30;5.28;;;;;;;-1.36;94.58;102336.19;10253928;29;20071;-69
2024/01/22 08:27:29;;;;;;;9.60;5.22;;;;;;;-1.01;93.82;102333.44;10255080;29;20130;-69
2024/01/22 08:32:30;;;;;;;8.60;5.40;;;;;;;-1.35;92.36;102288.34;10254856;29;20049;-69
2024/01/22 08:37:31;;;;;;;10.70;6.03;;;;;;;-1.40;92.32;102330.22;10253477;29;20134;-69
2024/01/22 08:42:35;;;;;;;7.95;4.35;;;;;;;-1.76;91.85;102332.91;10253771;29;20436;-69
2024/01/22 08:47:35;;;;;;;8.15;5.22;;;;;;;-1.72;92.91;102333.69;10254098;29;20535;-69
2024/01/22 08:52:37;;;;;;;11.48;6.20;;;;;;;-1.73;93.50;102283.31;10253046;29;20125;-69
2024/01/22 08:57:39;;;;;;;9.00;4.60;;;;;;;-1.66;91.36;102279.66;10252605;29;20074;-69
2024/01/22 09:02:41;;;;;;;8.38;4.68;;;;;;;-1.86;91.72;102268.91;10251809;28;20093;-69
2024/01/22 09:07:42;;;;;;;9.50;5.35;;;;;;;-1.62;92.28;102307.31;10252637;29;20039;-68
2024/01/22 09:12:43;;;;;;;9.85;5.35;;;;;;;-1.50;91.70;102272.25;10252964;29;20043;-69
2024/01/22 09:17:44;;;;;;;9.27;4.13;;;;;;;-0.99;88.97;102308.19;10251947;29;20090;-69
2024/01/22 09:22:45;;;;;;;9.80;5.30;;;;;;;-1.27;91.02;102315.06;10252133;29;20043;-68
2024/01/22 09:27:47;;;;;;;8.32;4.90;;;;;;;-1.26;90.19;102314.16;10251891;29;20043;-69
2024/01/22 09:32:49;;;;;;;8.38;3.97;;;;;;;-1.04;88.29;102312.66;10252836;29;20046;-69
2024/01/22 09:37:49;;;;;;;8.10;4.85;;;;;;;-1.34;90.79;102314.41;10252487;29;20067;-69
2024/01/22 09:42:51;;;;;;;8.93;4.70;;;;;;;-1.01;90.92;102309.13;10251622;29;20130;-69
2024/01/22 09:47:52;;;;;;;11.00;5.22;;;;;;;-0.70;89.68;102311.63;10251980;29;20051;-69
2024/01/22 09:52:56;;;;;;;11.07;6.43;;;;;;;-0.89;90.22;102321.78;10252118;29;20054;-69
2024/01/22 09:57:59;;;;;;;11.25;5.00;;;;;;;-1.24;89.00;102325.41;10252232;29;20043;-69
2024/01/22 10:03:02;;;;;;;11.97;6.40;;;;;;;-1.72;91.12;102323.25;10251043;29;20455;-69
2024/01/22 10:08:03;;;;;;;7.68;4.45;;;;;;;-1.95;91.51;102313.44;10251529;29;20039;-69
2024/01/22 10:13:07;;;;;;;11.30;5.22;;;;;;;-2.28;91.91;102315.97;10251446;29;20496;-69
2024/01/22 10:18:16;;;;;;;9.23;5.40;;;;;;;-2.32;92.96;102306.53;10258291;28;20047;-69
2024/01/22 10:23:16;;;;;;;9.50;5.38;;;;;;;-2.30;92.89;102303.00;10259047;29;20046;-69
2024/01/22 10:28:18;;;;;;;5.80;3.10;;;;;;;-2.47;92.74;102286.09;10258946;29;20047;-69
2024/01/22 10:33:20;;;;;;;10.77;6.65;;;;;;;-2.54;93.62;102290.59;10258253;29;20047;-69
2024/01/22 10:38:20;;;;;;;10.18;5.78;;;;;;;-2.37;94.17;102298.81;10258313;28;20114;-69
2024/01/22 10:43:24;;;;;;;12.23;7.05;;;;;;;-2.24;93.14;102289.00;10259333;29;20146;-69
2024/01/22 10:48:28;;;;;;;10.60;5.90;;;;;;;-2.41;92.39;102304.16;10259851;28;20082;-69
2024/01/22 10:53:28;;;;;;;18.85;9.02;;;;;;;-2.55;92.92;102294.06;10257595;28;20508;-69
2024/01/22 10:58:48;;;;;;;102.60;35.00;;;;;;;-2.61;93.17;102266.44;10257356;28;20053;-69
2024/01/22 11:03:51;;;;;;;86.05;28.83;;;;;;;-2.66;92.91;102283.03;10257711;28;20563;-69
2024/01/22 11:08:53;;;;;;;114.32;38.05;;;;;;;-2.26;93.68;102306.38;10256790;28;20459;-69
2024/01/22 11:13:56;;;;;;;98.70;38.20;;;;;;;-2.39;92.91;102239.91;10257736;28;20053;-69
2024/01/22 11:18:58;;;;;;;15.02;8.25;;;;;;;-2.33;91.48;102305.69;10257479;28;20050;-69
2024/01/22 11:24:12;;;;;;;9.10;5.28;;;;;;;-2.37;91.45;102311.00;10257106;29;20074;-69
2024/01/22 11:29:17;;;;;;;10.82;6.38;;;;;;;-2.36;93.15;102310.13;10255186;28;20036;-69
2024/01/22 11:34:39;;;;;;;10.68;6.05;;;;;;;-2.35;91.80;102325.69;10256521;29;20066;-69
2024/01/22 11:39:42;;;;;;;10.30;6.03;;;;;;;-2.55;92.68;102330.50;10256257;29;20047;-69
2024/01/22 11:44:45;;;;;;;10.85;6.22;;;;;;;-2.82;92.28;102295.56;10256266;29;20063;-69
2024/01/22 11:49:46;;;;;;;13.47;5.93;;;;;;;-2.71;92.83;102340.41;10255357;29;20078;-69
2024/01/22 11:54:55;;;;;;;9.55;5.72;;;;;;;-2.85;92.51;102309.47;10256856;29;20141;-69
2024/01/22 12:00:05;;;;;;;12.00;5.97;;;;;;;-2.70;93.26;102349.06;10254824;28;20122;-69
2024/01/22 12:05:17;;;;;;;11.38;6.20;;;;;;;-2.79;93.99;102347.50;10255968;29;20039;-69
2024/01/22 12:10:27;;;;;;;9.50;4.70;;;;;;;-2.77;93.39;102358.75;10254715;29;20125;-69
2024/01/22 12:15:32;;;;;;;11.98;6.10;;;;;;;-2.96;94.14;102378.22;10255183;29;20043;-69
2024/01/22 12:20:33;;;;;;;14.52;6.72;;;;;;;-2.91;94.13;102378.97;10254769;29;20046;-69
2024/01/22 12:25:36;;;;;;;11.93;7.13;;;;;;;-3.13;95.06;102324.81;10254137;28;20055;-69
2024/01/22 12:30:38;;;;;;;10.10;6.15;;;;;;;-2.99;94.89;102392.16;10254842;29;20510;-69
2024/01/22 12:35:43;;;;;;;14.25;7.15;;;;;;;-3.11;94.63;102376.78;10252593;29;20035;-69
2024/01/22 12:40:44;;;;;;;13.07;7.15;;;;;;;-3.14;94.91;102387.22;10244598;28;20043;-70
2024/01/22 12:45:46;;;;;;;11.40;6.20;;;;;;;-3.18;95.68;102396.00;10250376;29;20058;-70
2024/01/22 12:50:46;;;;;;;14.93;7.30;;;;;;;-3.30;96.35;102390.13;10253047;28;20512;-69
2024/01/22 12:55:47;;;;;;;10.88;6.97;;;;;;;-3.31;96.30;102398.81;10248983;28;20035;-69
2024/01/22 13:00:48;;;;;;;10.98;6.57;;;;;;;-3.41;96.69;102373.91;10233265;28;20058;-69
2024/01/22 13:05:49;;;;;;;15.18;8.13;;;;;;;-3.29;97.16;102404.84;10232507;29;20043;-69
2024/01/22 13:10:50;;;;;;;10.90;6.60;;;;;;;-3.39;97.02;102405.91;10236483;28;20051;-68
2024/01/22 13:15:53;;;;;;;7.80;4.78;;;;;;;-3.50;96.84;102406.09;10233142;28;20067;-67
2024/01/22 13:20:54;;;;;;;10.70;6.27;;;;;;;-3.67;97.65;102408.13;10231173;28;20043;-67
2024/01/22 13:25:55;;;;;;;11.57;6.03;;;;;;;-3.78;98.13;102413.50;10230523;29;20648;-67
2024/01/22 13:30:56;;;;;;;11.05;6.35;;;;;;;-3.99;97.93;102377.50;10235751;29;20047;-67
2024/01/22 13:35:57;;;;;;;12.23;5.70;;;;;;;-3.80;97.73;102425.66;10219480;28;20047;-66
2024/01/22 13:40:58;;;;;;;7.55;4.63;;;;;;;-3.87;97.91;102412.78;10212266;29;20527;-67
2024/01/22 13:45:59;;;;;;;8.80;5.07;;;;;;;-4.43;97.56;102343.59;10212723;29;20062;-67
2024/01/22 13:51:00;;;;;;;9.85;5.93;;;;;;;-4.04;98.32;102421.69;10211635;29;20052;-68
2024/01/22 13:56:02;;;;;;;8.48;4.93;;;;;;;-4.13;97.53;102414.03;10218064;29;20039;-67
2024/01/22 14:01:03;;;;;;;15.80;7.80;;;;;;;-4.22;97.03;102419.38;10251035;29;20487;-67
2024/01/22 14:06:06;;;;;;;33.05;14.00;;;;;;;-4.24;97.60;102431.53;10252536;28;20040;-67
2024/01/22 14:11:07;;;;;;;19.75;9.93;;;;;;;-4.32;97.46;102434.22;10251368;28;20039;-67
2024/01/22 14:16:07;;;;;;;22.33;8.95;;;;;;;-4.68;97.65;102370.75;10250952;29;20474;-67
2024/01/22 14:21:08;;;;;;;12.65;6.75;;;;;;;-4.37;98.35;102438.63;10249027;29;20067;-66
2024/01/22 14:26:09;;;;;;;6.18;3.63;;;;;;;-4.37;98.94;102454.19;10250268;29;20474;-67
2024/01/22 14:31:10;;;;;;;11.10;5.10;;;;;;;-4.25;99.23;102450.56;10249674;29;20133;-67
2024/01/22 14:36:11;;;;;;;8.98;5.28;;;;;;;-4.50;98.76;102414.59;10250387;29;20070;-67
2024/01/22 14:41:12;;;;;;;7.78;4.78;;;;;;;-4.35;98.71;102465.41;10250494;29;20054;-67
2024/01/22 14:46:12;;;;;;;8.85;5.47;;;;;;;-4.45;98.75;102469.00;10249927;28;20058;-67
2024/01/22 14:51:13;;;;;;;7.25;3.38;;;;;;;-4.50;99.26;102460.44;10249839;29;20071;-67
2024/01/22 14:56:14;;;;;;;10.02;5.82;;;;;;;-4.45;99.46;102469.88;10250476;28;20043;-67
2024/01/22 15:01:15;;;;;;;5.72;2.67;;;;;;;-4.43;99.60;102467.25;10252067;28;20098;-68
2024/01/22 15:06:16;;;;;;;12.00;6.22;;;;;;;-4.60;99.53;102439.78;10253170;29;20101;-66
2024/01/22 15:11:16;;;;;;;7.95;4.28;;;;;;;-4.38;99.19;102468.03;10233047;28;20055;-67
2024/01/22 15:16:17;;;;;;;10.48;5.97;;;;;;;-4.38;99.30;102465.44;10217298;29;20134;-68
2024/01/22 15:21:18;;;;;;;12.50;6.10;;;;;;;-4.42;98.91;102479.34;10216035;29;20492;-68
2024/01/22 15:26:19;;;;;;;10.30;5.97;;;;;;;-4.40;98.77;102469.78;10216863;29;20111;-68
2024/01/22 15:31:19;;;;;;;10.90;5.93;;;;;;;-4.80;98.51;102402.88;10216424;29;20046;-68
2024/01/22 15:36:20;;;;;;;11.07;5.97;;;;;;;-4.46;98.47;102480.25;10253246;29;20051;-68
2024/01/22 15:41:22;;;;;;;7.78;4.47;;;;;;;-4.73;98.79;102437.34;10255893;29;20171;-68
2024/01/22 15:46:23;;;;;;;7.95;5.10;;;;;;;-4.56;98.58;102482.09;10256496;28;20496;-68
2024/01/22 15:51:23;;;;;;;12.43;5.90;;;;;;;-4.74;98.87;102469.38;10255701;29;20045;-68
2024/01/22 15:56:24;;;;;;;10.20;5.65;;;;;;;-4.44;98.33;102512.22;10254303;29;20039;-68
2024/01/22 16:01:26;;;;;;;23.60;9.98;;;;;;;-4.47;97.33;102507.06;10255175;28;20050;-68
2024/01/22 16:06:27;;;;;;;25.80;7.72;;;;;;;-4.42;97.88;102497.50;10256200;28;20051;-68
2024/01/22 16:11:28;;;;;;;14.07;6.78;;;;;;;-4.36;97.65;102500.88;10253458;28;20407;-68
2024/01/22 16:16:30;;;;;;;13.48;6.72;;;;;;;-4.33;97.43;102520.75;10254763;28;20047;-68
2024/01/22 16:21:34;;;;;;;7.90;4.40;;;;;;;-4.42;96.37;102520.84;10252711;28;20043;-68
2024/01/22 16:26:37;;;;;;;;;;;;;;;-4.43;96.73;102534.69;10254258;28;20050;-68
2024/01/22 16:31:38;;;;;;;10.63;5.85;;;;;;;-4.93;97.01;102469.56;10252351;28;19918;-68
2024/01/22 16:36:42;;;;;;;9.80;6.47;;;;;;;-4.54;97.44;102532.25;10253592;29;20047;-68
2024/01/22 16:41:42;;;;;;;12.93;5.95;;;;;;;-4.69;97.04;102528.09;10253848;29;20062;-68
2024/01/22 16:46:43;;;;;;;10.68;6.32;;;;;;;-4.77;97.48;102529.88;10252861;29;20094;-68
2024/01/22 16:51:44;;;;;;;10.00;5.68;;;;;;;-4.82;97.67;102535.13;10253074;28;20043;-68
2024/01/22 16:56:45;;;;;;;13.15;5.97;;;;;;;-4.78;98.19;102545.47;10253029;29;20035;-68
2024/01/22 17:01:46;;;;;;;11.27;5.97;;;;;;;-4.88;98.05;102532.56;10253536;28;20483;-68
2024/01/22 17:06:46;;;;;;;12.38;6.43;;;;;;;-5.17;97.99;102494.00;10253679;29;20186;-68
2024/01/22 17:11:47;;;;;;;9.77;5.70;;;;;;;-5.12;97.72;102507.75;10252603;29;20043;-69
2024/01/22 17:16:48;;;;;;;9.02;5.07;;;;;;;-5.03;97.32;102552.63;10251365;29;20487;-68
2024/01/22 17:21:49;;;;;;;8.27;4.65;;;;;;;-5.31;97.62;102514.00;10252523;28;20039;-68
2024/01/22 17:26:49;;;;;;;9.65;5.18;;;;;;;-5.08;97.11;102560.44;10250317;28;20130;-68
2024/01/22 17:31:50;;;;;;;10.45;5.35;;;;;;;-5.20;96.91;102551.03;10251788;28;20102;-68
2024/01/22 17:36:51;;;;;;;9.23;5.15;;;;;;;-5.31;95.63;102537.31;10251777;29;20071;-68
2024/01/22 17:41:52;;;;;;;11.63;5.60;;;;;;;-5.25;95.90;102558.00;10251712;28;20043;-68
2024/01/22 17:46:53;;;;;;;7.07;3.33;;;;;;;-5.34;93.10;102563.25;10252009;29;20069;-68
2024/01/22 17:51:54;;;;;;;8.68;4.38;;;;;;;-5.32;94.31;102556.34;10250724;28;20071;-68
2024/01/22 17:56:55;;;;;;;8.80;4.60;;;;;;;-5.40;93.76;102552.94;10250452;29;20043;-68
2024/01/22 18:01:56;;;;;;;12.02;4.45;;;;;;;-5.32;94.18;102546.81;10251396;28;20043;-68
2024/01/22 18:06:58;;;;;;;11.60;4.53;;;;;;;-5.32;92.59;102551.16;10251244;29;20039;-68
2024/01/22 18:11:59;;;;;;;13.98;6.68;;;;;;;-5.52;92.86;102543.53;10250815;29;20051;-68
2024/01/22 18:17:00;;;;;;;11.23;4.40;;;;;;;-5.53;92.33;102545.25;10251568;29;20039;-68
2024/01/22 18:22:01;;;;;;;19.50;8.40;;;;;;;-5.66;92.68;102530.66;10250412;29;20114;-68
2024/01/22 18:27:01;;;;;;;10.90;5.97;;;;;;;-5.43;93.39;102558.13;10250769;28;20399;-68
2024/01/22 18:32:03;;;;;;;9.45;5.10;;;;;;;-5.47;93.00;102557.31;10251452;29;20411;-68
2024/01/22 18:37:04;;;;;;;8.73;5.15;;;;;;;-5.79;93.44;102504.00;10254537;28;20043;-68
2024/01/22 18:42:05;;;;;;;9.30;4.50;;;;;;;-5.58;92.68;102554.78;10257791;29;20039;-68
2024/01/22 18:47:06;;;;;;;8.63;4.40;;;;;;;-5.72;93.35;102543.66;10258790;29;20133;-68
2024/01/22 18:52:07;;;;;;;9.82;4.63;;;;;;;-5.57;93.20;102551.31;10258616;28;20086;-68
2024/01/22 18:57:08;;;;;;;10.07;4.93;;;;;;;-5.53;92.79;102553.03;10257680;29;20047;-68
2024/01/22 19:02:09;;;;;;;11.52;5.03;;;;;;;-5.36;92.78;102562.38;10257932;28;20102;-68
2024/01/22 19:07:12;;;;;;;9.40;4.30;;;;;;;-5.61;91.75;102552.22;10256856;28;20055;-68
2024/01/22 19:12:13;;;;;;;9.68;4.47;;;;;;;-5.61;92.45;102565.16;10256172;29;20039;-68
2024/01/22 19:17:13;;;;;;;8.07;4.38;;;;;;;-5.66;92.29;102560.88;10257104;28;20047;-68
2024/01/22 19:22:14;;;;;;;6.03;3.22;;;;;;;-5.69;90.71;102561.75;10256902;29;20049;-68
2024/01/22 19:27:15;;;;;;;8.88;4.13;;;;;;;-5.68;91.69;102545.38;10255225;29;20043;-68
2024/01/22 19:32:16;;;;;;;7.57;4.00;;;;;;;-5.78;91.42;102562.66;10257140;28;20522;-68
2024/01/22 19:37:17;;;;;;;8.23;3.92;;;;;;;-5.91;91.61;102552.41;10256231;28;20522;-67
2024/01/22 19:42:18;;;;;;;7.03;3.25;;;;;;;-5.85;91.28;102573.06;10255404;29;20043;-68
2024/01/22 19:47:24;;;;;;;8.70;4.10;;;;;;;-5.89;91.38;102564.47;10254909;28;20045;-68
2024/01/22 19:52:25;;;;;;;8.25;3.22;;;;;;;-5.76;90.57;102578.19;10255822;29;20587;-68
2024/01/22 19:57:26;;;;;;;7.55;3.97;;;;;;;-5.84;91.12;102569.63;10255012;29;20051;-68
2024/01/22 20:02:27;;;;;;;6.22;3.25;;;;;;;-6.29;90.62;102522.44;10255939;29;20408;-68
2024/01/22 20:07:28;;;;;;;9.55;4.22;;;;;;;-6.10;91.25;102570.66;10254411;29;20043;-68
2024/01/22 20:12:29;;;;;;;7.07;3.55;;;;;;;-6.38;90.98;102522.47;10254720;29;20050;-68
2024/01/22 20:17:29;;;;;;;7.53;3.47;;;;;;;-6.29;91.27;102558.66;10253103;29;20558;-68
2024/01/22 20:22:30;;;;;;;9.00;4.32;;;;;;;-6.13;91.68;102574.94;10254654;28;20043;-68
2024/01/22 20:27:31;;;;;;;8.73;3.90;;;;;;;-6.39;91.90;102544.91;10253989;29;20091;-69
2024/01/22 20:32:31;;;;;;;9.43;4.75;;;;;;;-6.16;92.19;102544.81;10253961;29;20043;-68
2024/01/22 20:37:32;;;;;;;7.18;3.97;;;;;;;-5.68;92.28;102589.38;10254311;29;20480;-68
2024/01/22 20:42:34;;;;;;;7.10;4.05;;;;;;;-6.05;91.63;102517.13;10253415;29;20690;-68
2024/01/22 20:47:35;;;;;;;11.60;3.88;;;;;;;-5.99;91.04;102558.50;10253856;29;20051;-68
2024/01/22 20:52:36;;;;;;;8.52;4.32;;;;;;;-5.99;91.91;102594.72;10254167;29;20488;-68
2024/01/22 20:57:36;;;;;;;8.75;4.57;;;;;;;-5.99;92.00;102588.69;10252765;28;20138;-67
2024/01/22 21:02:40;;;;;;;7.68;4.50;;;;;;;-6.20;92.23;102533.59;10253542;29;20043;-68
2024/01/22 21:07:41;;;;;;;6.68;3.85;;;;;;;-5.98;91.96;102575.78;10252683;29;20151;-68
2024/01/22 21:12:43;;;;;;;7.30;3.97;;;;;;;-6.05;91.21;102571.47;10252957;29;20043;-68
2024/01/22 21:17:44;;;;;;;7.57;4.00;;;;;;;-6.44;91.37;102531.13;10252779;29;20079;-68
2024/01/22 21:22:45;;;;;;;18.63;7.65;;;;;;;-6.23;91.88;102589.66;10251182;29;20066;-68
2024/01/22 21:27:45;;;;;;;10.15;4.75;;;;;;;-6.20;92.43;102594.81;10252079;29;20058;-69
2024/01/22 21:32:48;;;;;;;10.07;4.95;;;;;;;-6.18;92.31;102594.84;10252446;29;20035;-68
2024/01/22 21:37:48;;;;;;;8.27;4.32;;;;;;;-6.22;92.08;102609.50;10252223;29;20051;-68
2024/01/22 21:42:49;;;;;;;7.68;3.47;;;;;;;-6.26;92.06;102592.25;10251913;28;20066;-68
2024/01/22 21:47:50;;;;;;;9.75;4.68;;;;;;;-6.75;91.83;102527.78;10252588;29;20062;-67
2024/01/22 21:52:51;;;;;;;8.07;4.53;;;;;;;-6.59;92.09;102575.97;10251434;28;20134;-68
2024/01/22 21:57:51;;;;;;;8.75;4.85;;;;;;;-6.59;92.05;102575.97;10250687;29;20060;-68
2024/01/22 22:02:52;;;;;;;8.85;4.75;;;;;;;-6.85;92.09;102526.06;10252131;28;20508;-68
2024/01/22 22:07:53;;;;;;;10.15;5.40;;;;;;;-6.71;92.12;102561.34;10252176;29;20047;-68
2024/01/22 22:12:54;;;;;;;6.75;3.20;;;;;;;-7.00;91.39;102504.59;10256648;28;20038;-68
2024/01/22 22:17:56;;;;;;;10.95;4.90;;;;;;;-6.81;92.51;102526.06;10259749;29;20492;-68
2024/01/22 22:22:57;;;;;;;8.05;3.88;;;;;;;-6.82;92.16;102520.88;10259434;29;20039;-68
2024/01/22 22:27:58;;;;;;;8.75;4.75;;;;;;;-6.81;92.67;102557.09;10259253;29;20130;-68
2024/01/22 22:32:59;;;;;;;8.23;4.97;;;;;;;-6.87;92.48;102532.97;10258428;29;20090;-68
2024/01/22 22:38:00;;;;;;;8.98;4.22;;;;;;;-6.83;92.72;102547.59;10258754;29;20086;-67
2024/01/22 22:43:00;;;;;;;8.77;4.30;;;;;;;-7.25;92.47;102501.16;10258770;29;20141;-67
2024/01/22 22:48:01;;;;;;;8.40;3.58;;;;;;;-7.00;92.56;102532.13;10258484;29;20051;-68